Terminal Aerodrome Forecast
Issued by NWS

Home | Current Version | Previous Version | Text Only | Print | Product List | Glossary On
Versions: 1 2 3 4 5 6 7 8 9 10 11 12 13 14
000
FTUS44 KLZK 270500
TAFHRO
TAF
KHRO 270534Z 2706/2806 36006KT P6SM SCT250
     FM271200 03004KT P6SM SCT100 BKN250
     FM271800 07007KT P6SM OVC100
     FM280000 09005KT P6SM OVC050 PROB30 2800/2804 5SM -SN=

USA.gov is the U.S. government's official web portal to all federal, state and local government web resources and services.